createdAt,value
2023-04-17T00:00:32.968Z,98749.00
2023-04-17T00:03:20.681Z,98753.00
2023-04-17T00:06:08.927Z,98747.00
2023-04-17T00:08:56.712Z,98754.00
2023-04-17T00:11:44.577Z,98748.00
2023-04-17T00:14:32.568Z,98744.00
2023-04-17T00:17:20.322Z,98750.00
2023-04-17T00:20:12.525Z,98743.00
2023-04-17T00:23:00.444Z,98745.00
2023-04-17T00:25:48.403Z,98746.00
2023-04-17T00:28:36.008Z,98748.00
2023-04-17T00:31:23.970Z,98743.00
2023-04-17T00:34:11.383Z,98741.00
2023-04-17T00:36:59.448Z,98740.00
2023-04-17T00:39:47.119Z,98742.00
2023-04-17T00:42:34.812Z,98739.00
2023-04-17T00:45:22.817Z,98745.00
2023-04-17T00:48:11.294Z,98733.00
2023-04-17T00:51:03.676Z,98734.00
2023-04-17T00:53:52.025Z,98732.00
2023-04-17T00:56:41.280Z,98737.00
2023-04-17T00:59:32.693Z,98738.00
2023-04-17T01:02:20.851Z,98737.00
2023-04-17T01:05:10.019Z,98735.00
2023-04-17T01:08:01.512Z,98736.00
2023-04-17T01:10:49.201Z,98741.00
2023-04-17T01:13:56.997Z,98736.00
2023-04-17T01:16:44.835Z,98737.00
2023-04-17T01:19:32.836Z,98739.00
2023-04-17T01:22:21.436Z,98747.00
2023-04-17T01:25:09.329Z,98741.00
2023-04-17T01:27:57.351Z,98736.00
2023-04-17T01:30:44.943Z,98744.00
2023-04-17T01:33:32.565Z,98741.00
2023-04-17T01:36:20.444Z,98748.00
2023-04-17T01:39:08.090Z,98741.00
2023-04-17T01:41:58.661Z,98745.00
2023-04-17T01:44:46.670Z,98743.00
2023-04-17T01:47:34.394Z,98737.00
2023-04-17T01:50:22.306Z,98735.00
2023-04-17T01:53:10.076Z,98741.00
2023-04-17T01:55:58.091Z,98741.00
2023-04-17T01:58:45.684Z,98740.00
2023-04-17T02:01:33.412Z,98745.00
2023-04-17T02:04:21.109Z,98746.00
2023-04-17T02:07:09.039Z,98749.00
2023-04-17T02:09:56.509Z,98746.00
2023-04-17T02:12:44.080Z,98743.00
2023-04-17T02:15:31.936Z,98749.00
2023-04-17T02:18:19.777Z,98749.00
2023-04-17T02:21:07.356Z,98749.00
2023-04-17T02:23:54.907Z,98744.00
2023-04-17T02:26:42.702Z,98743.00
2023-04-17T02:29:30.486Z,98750.00
2023-04-17T02:32:18.201Z,98748.00
2023-04-17T02:35:06.499Z,98751.00
2023-04-17T02:37:54.488Z,98752.00
2023-04-17T02:40:41.962Z,98756.00
2023-04-17T02:43:29.646Z,98748.00
2023-04-17T02:46:17.226Z,98748.00
2023-04-17T02:49:04.760Z,98748.00
2023-04-17T02:51:52.208Z,98747.00
2023-04-17T02:54:39.709Z,98746.00
2023-04-17T02:57:27.431Z,98741.00
2023-04-17T03:00:15.239Z,98745.00
2023-04-17T03:03:03.438Z,98745.00
2023-04-17T03:05:51.945Z,98743.00
2023-04-17T03:08:39.776Z,98743.00
2023-04-17T03:11:27.461Z,98743.00
2023-04-17T03:14:15.925Z,98746.00
2023-04-17T03:17:03.357Z,98745.00
2023-04-17T03:19:50.956Z,98748.00
2023-04-17T03:22:38.646Z,98746.00
2023-04-17T03:25:26.596Z,98743.00
2023-04-17T03:28:14.332Z,98749.00
2023-04-17T03:31:02.002Z,98741.00
2023-04-17T03:33:50.341Z,98745.00
2023-04-17T03:36:38.004Z,98744.00
2023-04-17T03:39:25.626Z,98744.00
2023-04-17T03:42:14.843Z,98747.00
2023-04-17T03:45:04.619Z,98741.00
2023-04-17T03:47:52.361Z,98740.00
2023-04-17T03:50:43.124Z,98749.00
2023-04-17T03:53:31.140Z,98750.00
2023-04-17T03:56:18.805Z,98755.00
2023-04-17T03:59:06.385Z,98755.00
2023-04-17T04:01:54.510Z,98764.00
2023-04-17T04:04:42.611Z,98757.00
2023-04-17T04:07:30.431Z,98758.00
2023-04-17T04:10:18.159Z,98756.00
2023-04-17T04:13:06.035Z,98766.00
2023-04-17T04:15:54.195Z,98757.00
2023-04-17T04:18:43.449Z,98770.00
2023-04-17T04:21:30.904Z,98770.00
2023-04-17T04:24:20.724Z,98765.00
2023-04-17T04:27:09.684Z,98772.00
2023-04-17T04:29:58.937Z,98775.00
2023-04-17T04:32:47.085Z,98771.00
2023-04-17T04:35:36.295Z,98770.00
2023-04-17T04:38:30.643Z,98764.00
2023-04-17T04:41:20.110Z,98771.00
2023-04-17T04:44:07.594Z,98762.00
2023-04-17T04:46:55.774Z,98773.00
2023-04-17T04:49:43.615Z,98770.00
2023-04-17T04:52:31.099Z,98778.00
2023-04-17T04:55:19.921Z,98771.00
2023-04-17T04:58:07.330Z,98774.00
2023-04-17T05:00:55.962Z,98778.00
2023-04-17T05:03:47.674Z,98779.00
2023-04-17T05:06:35.765Z,98778.00
2023-04-17T05:09:23.824Z,98788.00
2023-04-17T05:12:11.761Z,98782.00
2023-04-17T05:14:59.762Z,98788.00
2023-04-17T05:17:48.191Z,98793.00
2023-04-17T05:20:38.003Z,98786.00
2023-04-17T05:23:25.843Z,98788.00
2023-04-17T05:26:13.689Z,98788.00
2023-04-17T05:29:01.380Z,98796.00
2023-04-17T05:31:48.984Z,98793.00
2023-04-17T05:34:36.804Z,98796.00
2023-04-17T05:37:24.612Z,98809.00
2023-04-17T05:40:13.392Z,98806.00
2023-04-17T05:43:12.433Z,98820.00
2023-04-17T05:46:01.009Z,98812.00
2023-04-17T05:48:51.776Z,98819.00
2023-04-17T05:51:39.522Z,98815.00
2023-04-17T05:54:30.401Z,98829.00
2023-04-17T05:57:18.004Z,98823.00
2023-04-17T06:00:11.176Z,98817.00
2023-04-17T06:03:00.007Z,98817.00
2023-04-17T06:05:48.521Z,98815.00
2023-04-17T06:08:36.421Z,98822.00
2023-04-17T06:11:24.542Z,98824.00
2023-04-17T06:14:12.832Z,98827.00
2023-04-17T06:17:00.542Z,98831.00
2023-04-17T06:19:48.100Z,98830.00
2023-04-17T06:22:36.835Z,98839.00
2023-04-17T06:25:24.515Z,98837.00
2023-04-17T06:28:12.405Z,98841.00
2023-04-17T06:31:02.981Z,98829.00
2023-04-17T06:33:51.613Z,98841.00
2023-04-17T06:36:39.605Z,98842.00
2023-04-17T06:39:27.616Z,98845.00
2023-04-17T06:42:16.555Z,98850.00
2023-04-17T06:45:05.542Z,98850.00
2023-04-17T06:47:53.363Z,98854.00
2023-04-17T06:50:41.274Z,98859.00
2023-04-17T06:53:28.977Z,98854.00
2023-04-17T06:56:17.212Z,98861.00
2023-04-17T06:59:05.023Z,98853.00
2023-04-17T07:01:52.936Z,98857.00
2023-04-17T07:04:40.611Z,98848.00
2023-04-17T07:07:30.071Z,98856.00
2023-04-17T07:10:19.913Z,98858.00
2023-04-17T07:13:08.272Z,98863.00
2023-04-17T07:16:01.632Z,98863.00
2023-04-17T07:18:52.078Z,98852.00
2023-04-17T07:21:39.781Z,98852.00
2023-04-17T07:24:27.726Z,98864.00
2023-04-17T07:27:16.079Z,98865.00
2023-04-17T07:30:05.032Z,98865.00
2023-04-17T07:32:53.076Z,98863.00
2023-04-17T07:35:41.346Z,98866.00
2023-04-17T07:38:30.968Z,98862.00
2023-04-17T07:41:18.726Z,98875.00
2023-04-17T07:44:06.637Z,98877.00
2023-04-17T07:46:54.141Z,98869.00
2023-04-17T07:49:42.194Z,98874.00
2023-04-17T07:52:31.292Z,98875.00
2023-04-17T07:55:18.986Z,98873.00
2023-04-17T07:58:06.582Z,98881.00
2023-04-17T08:00:54.341Z,98873.00
2023-04-17T08:03:45.227Z,98877.00
2023-04-17T08:06:36.735Z,98890.00
2023-04-17T08:09:24.411Z,98885.00
2023-04-17T08:12:12.195Z,98886.00
2023-04-17T08:14:59.925Z,98885.00
2023-04-17T08:17:48.413Z,98889.00
2023-04-17T08:20:36.882Z,98890.00
2023-04-17T08:23:24.410Z,98889.00
2023-04-17T08:26:12.178Z,98885.00
2023-04-17T08:29:04.596Z,98888.00
2023-04-17T08:32:00.252Z,98887.00
2023-04-17T08:34:59.135Z,98895.00
2023-04-17T08:37:47.018Z,98890.00
2023-04-17T08:40:34.672Z,98891.00
2023-04-17T08:43:23.949Z,98892.00
2023-04-17T08:46:12.875Z,98899.00
2023-04-17T08:49:03.510Z,98893.00
2023-04-17T08:51:51.613Z,98897.00
2023-04-17T08:54:39.719Z,98894.00
2023-04-17T08:57:28.023Z,98897.00
2023-04-17T09:00:25.614Z,98887.00
2023-04-17T09:03:14.914Z,98891.00
2023-04-17T09:06:05.919Z,98880.00
2023-04-17T09:09:02.001Z,98888.00
2023-04-17T09:12:10.926Z,98879.00
2023-04-17T09:14:58.833Z,98875.00
2023-04-17T09:17:47.334Z,98883.00
2023-04-17T09:20:50.863Z,98880.00
2023-04-17T09:23:59.421Z,98873.00
2023-04-17T09:26:47.130Z,98870.00
2023-04-17T09:29:35.185Z,98872.00
2023-04-17T09:32:22.746Z,98868.00
2023-04-17T09:35:10.229Z,98868.00
2023-04-17T09:37:59.923Z,98854.00
2023-04-17T09:40:47.450Z,98863.00
2023-04-17T09:43:44.253Z,98860.00
2023-04-17T09:46:38.231Z,98861.00
2023-04-17T09:49:42.485Z,98864.00
2023-04-17T09:52:31.324Z,98871.00
2023-04-17T09:55:25.207Z,98867.00
2023-04-17T09:58:12.903Z,98864.00
2023-04-17T10:01:00.557Z,98871.00
2023-04-17T10:03:49.826Z,98861.00
2023-04-17T10:06:37.679Z,98868.00
2023-04-17T10:09:25.153Z,98869.00
2023-04-17T10:12:18.015Z,98859.00
2023-04-17T10:15:09.170Z,98858.00
2023-04-17T10:18:23.987Z,98857.00
2023-04-17T10:21:25.261Z,98847.00
2023-04-17T10:24:26.497Z,98855.00
2023-04-17T10:27:40.437Z,98845.00
2023-04-17T10:30:55.624Z,98841.00
2023-04-17T10:33:54.580Z,98842.00
2023-04-17T10:36:42.313Z,98840.00
2023-04-17T10:39:54.597Z,98836.00
2023-04-17T10:42:42.183Z,98833.00
2023-04-17T10:45:56.816Z,98826.00
2023-04-17T10:48:52.927Z,98825.00
2023-04-17T10:51:42.973Z,98822.00
2023-04-17T10:54:33.208Z,98816.00
2023-04-17T10:58:04.996Z,98815.00
2023-04-17T11:00:53.268Z,98816.00
2023-04-17T11:03:42.484Z,98813.00
2023-04-17T11:06:39.623Z,98814.00
2023-04-17T11:09:29.848Z,98815.00
2023-04-17T11:12:19.208Z,98817.00
2023-04-17T11:15:07.779Z,98815.00
2023-04-17T11:17:57.096Z,98816.00
2023-04-17T11:20:45.377Z,98801.00
2023-04-17T11:23:34.125Z,98814.00
2023-04-17T11:26:23.606Z,98808.00
2023-04-17T11:29:17.059Z,98807.00
2023-04-17T11:32:05.163Z,98811.00
2023-04-17T11:34:54.877Z,98805.00
2023-04-17T11:38:24.889Z,98803.00
2023-04-17T11:41:12.814Z,98801.00
2023-04-17T11:44:01.952Z,98804.00
2023-04-17T11:46:55.491Z,98799.00
2023-04-17T11:49:43.102Z,98798.00
2023-04-17T11:52:30.839Z,98788.00
2023-04-17T11:55:18.455Z,98797.00
2023-04-17T11:58:11.821Z,98793.00
2023-04-17T12:01:06.969Z,98794.00
2023-04-17T12:03:57.064Z,98798.00
2023-04-17T12:06:44.712Z,98799.00
2023-04-17T12:09:36.572Z,98792.00
2023-04-17T12:12:24.366Z,98793.00
2023-04-17T12:15:12.133Z,98797.00
2023-04-17T12:17:59.749Z,98796.00
2023-04-17T12:20:47.613Z,98783.00
2023-04-17T12:23:35.316Z,98792.00
2023-04-17T12:26:24.990Z,98788.00
2023-04-17T12:29:12.464Z,98785.00
2023-04-17T12:32:00.025Z,98783.00
2023-04-17T12:34:47.602Z,98781.00
2023-04-17T12:37:35.235Z,98782.00
2023-04-17T12:40:25.107Z,98782.00
2023-04-17T12:43:15.923Z,98780.00
2023-04-17T12:46:03.497Z,98777.00
2023-04-17T12:48:55.772Z,98775.00
2023-04-17T12:51:43.219Z,98775.00
2023-04-17T12:54:30.771Z,98772.00
2023-04-17T12:57:18.298Z,98776.00
2023-04-17T13:00:07.409Z,98780.00
2023-04-17T13:02:55.030Z,98771.00
2023-04-17T13:05:42.872Z,98765.00
2023-04-17T13:08:31.090Z,98765.00
2023-04-17T13:11:18.583Z,98761.00
2023-04-17T13:14:06.163Z,98755.00
2023-04-17T13:16:54.510Z,98755.00
2023-04-17T13:19:42.158Z,98759.00
2023-04-17T13:22:29.628Z,98754.00
2023-04-17T13:25:17.380Z,98747.00
2023-04-17T13:28:05.081Z,98753.00
2023-04-17T13:30:53.324Z,98754.00
2023-04-17T13:33:41.181Z,98748.00
2023-04-17T13:36:29.521Z,98750.00
2023-04-17T13:39:17.161Z,98744.00
2023-04-17T13:42:04.813Z,98742.00
2023-04-17T13:44:52.310Z,98743.00
2023-04-17T13:47:40.149Z,98738.00
2023-04-17T13:50:27.677Z,98732.00
2023-04-17T13:53:15.207Z,98736.00
2023-04-17T13:56:03.314Z,98741.00
2023-04-17T13:58:52.622Z,98734.00
2023-04-17T14:01:40.303Z,98733.00
2023-04-17T14:04:28.450Z,98727.00
2023-04-17T14:07:16.931Z,98729.00
2023-04-17T14:10:04.911Z,98723.00
2023-04-17T14:12:52.715Z,98724.00
2023-04-17T14:15:41.022Z,98715.00
2023-04-17T14:18:28.652Z,98718.00
2023-04-17T14:21:17.738Z,98714.00
2023-04-17T14:24:06.121Z,98718.00
2023-04-17T14:26:53.675Z,98712.00
2023-04-17T14:29:41.249Z,98713.00
2023-04-17T14:32:28.712Z,98711.00
2023-04-17T14:35:16.217Z,98703.00
2023-04-17T14:38:05.109Z,98708.00
2023-04-17T14:40:53.089Z,98704.00
2023-04-17T14:43:40.584Z,98700.00
2023-04-17T14:46:28.156Z,98713.00
2023-04-17T14:49:15.835Z,98709.00
2023-04-17T14:52:03.482Z,98705.00
2023-04-17T14:54:51.208Z,98707.00
2023-04-17T14:57:39.385Z,98700.00
2023-04-17T15:00:26.804Z,98703.00
2023-04-17T15:03:14.594Z,98704.00
2023-04-17T15:06:03.424Z,98700.00
2023-04-17T15:08:50.998Z,98702.00
2023-04-17T15:11:38.402Z,98703.00
2023-04-17T15:14:26.011Z,98699.00
2023-04-17T15:17:13.480Z,98700.00
2023-04-17T15:20:01.358Z,98698.00
2023-04-17T15:22:52.587Z,98694.00
2023-04-17T15:25:40.237Z,98695.00
2023-04-17T15:28:28.267Z,98693.00
2023-04-17T15:31:15.829Z,98689.00
2023-04-17T15:34:03.607Z,98696.00
2023-04-17T15:36:51.090Z,98698.00
2023-04-17T15:39:40.010Z,98697.00
2023-04-17T15:42:27.899Z,98694.00
2023-04-17T15:45:15.379Z,98712.00
2023-04-17T15:48:02.901Z,98711.00
2023-04-17T15:50:50.430Z,98721.00
2023-04-17T15:53:38.076Z,98729.00
2023-04-17T15:56:25.776Z,98731.00
2023-04-17T15:59:13.549Z,98725.00
2023-04-17T16:02:01.388Z,98720.00
2023-04-17T16:04:48.995Z,98719.00
2023-04-17T16:07:36.529Z,98719.00
2023-04-17T16:10:24.262Z,98714.00
2023-04-17T16:13:11.718Z,98717.00
2023-04-17T16:15:59.196Z,98716.00
2023-04-17T16:18:47.677Z,98727.00
2023-04-17T16:21:36.604Z,98728.00
2023-04-17T16:24:26.100Z,98725.00
2023-04-17T16:27:13.529Z,98721.00
2023-04-17T16:30:00.977Z,98725.00
2023-04-17T16:32:50.302Z,98717.00
2023-04-17T16:35:37.840Z,98722.00
2023-04-17T16:38:25.566Z,98716.00
2023-04-17T16:41:13.051Z,98717.00
2023-04-17T16:44:00.581Z,98717.00
2023-04-17T16:49:38.476Z,98715.00
2023-04-17T16:52:25.960Z,98719.00
2023-04-17T16:55:13.914Z,98721.00
2023-04-17T16:58:04.367Z,98723.00
2023-04-17T17:00:52.133Z,98731.00
2023-04-17T17:03:39.686Z,98732.00
2023-04-17T17:06:27.348Z,98722.00
2023-04-17T17:09:14.965Z,98722.00
2023-04-17T17:12:03.403Z,98734.00
2023-04-17T17:14:50.966Z,98722.00
2023-04-17T17:17:38.481Z,98729.00
2023-04-17T17:20:25.966Z,98724.00
2023-04-17T17:23:13.429Z,98726.00
2023-04-17T17:26:01.238Z,98732.00
2023-04-17T17:28:51.316Z,98736.00
2023-04-17T17:31:39.108Z,98737.00
2023-04-17T17:34:27.309Z,98732.00
2023-04-17T17:37:15.011Z,98742.00
2023-04-17T17:40:04.280Z,98743.00
2023-04-17T17:42:51.865Z,98747.00
2023-04-17T17:45:39.952Z,98748.00
2023-04-17T17:48:27.615Z,98747.00
2023-04-17T17:51:15.103Z,98742.00
2023-04-17T17:54:02.667Z,98747.00
2023-04-17T17:56:50.269Z,98751.00
2023-04-17T17:59:37.829Z,98758.00
2023-04-17T18:02:25.445Z,98755.00
2023-04-17T18:05:13.023Z,98755.00
2023-04-17T18:08:00.661Z,98759.00
2023-04-17T18:10:48.134Z,98762.00
2023-04-17T18:13:35.648Z,98759.00
2023-04-17T18:16:23.153Z,98760.00
2023-04-17T18:19:10.741Z,98757.00
2023-04-17T18:21:58.263Z,98771.00
2023-04-17T18:24:45.736Z,98775.00
2023-04-17T18:27:36.388Z,98771.00
2023-04-17T18:30:23.981Z,98774.00
2023-04-17T18:33:11.455Z,98778.00
2023-04-17T18:35:58.886Z,98775.00
2023-04-17T18:38:46.378Z,98783.00
2023-04-17T18:41:34.709Z,98783.00
2023-04-17T18:44:22.515Z,98782.00
2023-04-17T18:47:10.337Z,98778.00
2023-04-17T18:49:57.808Z,98783.00
2023-04-17T18:52:49.589Z,98776.00
2023-04-17T18:55:38.748Z,98783.00
2023-04-17T18:58:26.172Z,98775.00
2023-04-17T19:01:13.763Z,98782.00
2023-04-17T19:04:01.330Z,98785.00
2023-04-17T19:06:48.841Z,98788.00
2023-04-17T19:09:36.449Z,98788.00
2023-04-17T19:12:24.018Z,98785.00
2023-04-17T19:15:12.367Z,98783.00
2023-04-17T19:17:59.845Z,98779.00
2023-04-17T19:20:48.189Z,98784.00
2023-04-17T19:23:37.702Z,98780.00
2023-04-17T19:26:25.317Z,98791.00
2023-04-17T19:29:13.553Z,98821.00
2023-04-17T19:32:01.673Z,98845.00
2023-04-17T19:34:49.360Z,98822.00
2023-04-17T19:37:37.123Z,98787.00
2023-04-17T19:40:25.884Z,98794.00
2023-04-17T19:43:13.641Z,98802.00
2023-04-17T19:46:01.176Z,98804.00
2023-04-17T19:48:49.787Z,98812.00
2023-04-17T19:51:38.808Z,98807.00
2023-04-17T19:54:27.276Z,98802.00
2023-04-17T19:57:14.861Z,98801.00
2023-04-17T20:00:02.610Z,98804.00
2023-04-17T20:02:50.221Z,98808.00
2023-04-17T20:05:37.841Z,98811.00
2023-04-17T20:08:26.115Z,98809.00
2023-04-17T20:11:17.336Z,98807.00
2023-04-17T20:14:06.545Z,98801.00
2023-04-17T20:16:54.082Z,98795.00
2023-04-17T20:19:41.628Z,98806.00
2023-04-17T20:22:29.062Z,98801.00
2023-04-17T20:25:18.031Z,98795.00
2023-04-17T20:28:05.777Z,98799.00
2023-04-17T20:30:53.253Z,98796.00
2023-04-17T20:33:41.289Z,98793.00
2023-04-17T20:36:28.781Z,98794.00
2023-04-17T20:39:16.441Z,98798.00
2023-04-17T20:42:04.057Z,98793.00
2023-04-17T20:44:51.493Z,98791.00
2023-04-17T20:47:52.618Z,98798.00
2023-04-17T20:50:43.369Z,98800.00
2023-04-17T20:53:31.000Z,98803.00
2023-04-17T20:56:21.445Z,98803.00
2023-04-17T20:59:09.063Z,98805.00
2023-04-17T21:01:56.583Z,98812.00
2023-04-17T21:04:44.678Z,98801.00
2023-04-17T21:07:32.227Z,98809.00
2023-04-17T21:10:21.018Z,98800.00
2023-04-17T21:13:08.574Z,98807.00
2023-04-17T21:15:56.326Z,98802.00
2023-04-17T21:18:45.382Z,98806.00
2023-04-17T21:21:32.881Z,98803.00
2023-04-17T21:24:21.622Z,98817.00
2023-04-17T21:27:10.267Z,98815.00
2023-04-17T21:29:57.808Z,98820.00
2023-04-17T21:32:47.908Z,98809.00
2023-04-17T21:35:36.765Z,98813.00
2023-04-17T21:38:24.351Z,98810.00
2023-04-17T21:41:11.805Z,98813.00
2023-04-17T21:44:01.587Z,98820.00
2023-04-17T21:46:49.003Z,98798.00
2023-04-17T21:49:36.569Z,98800.00
2023-04-17T21:52:24.002Z,98803.00
2023-04-17T21:55:11.498Z,98809.00
2023-04-17T21:57:59.438Z,98801.00
2023-04-17T22:00:47.068Z,98801.00
2023-04-17T22:03:34.751Z,98796.00
2023-04-17T22:06:22.253Z,98795.00
2023-04-17T22:09:09.915Z,98802.00
2023-04-17T22:11:58.862Z,98810.00
2023-04-17T22:14:47.341Z,98807.00
2023-04-17T22:17:34.949Z,98802.00
2023-04-17T22:20:22.512Z,98796.00
2023-04-17T22:23:09.932Z,98792.00
2023-04-17T22:25:57.385Z,98798.00
2023-04-17T22:28:44.850Z,98797.00
2023-04-17T22:31:32.460Z,98796.00
2023-04-17T22:34:20.193Z,98797.00
2023-04-17T22:37:07.646Z,98798.00
2023-04-17T22:39:55.116Z,98800.00
2023-04-17T22:42:43.344Z,98798.00
2023-04-17T22:45:30.879Z,98799.00
2023-04-17T22:48:18.509Z,98795.00
2023-04-17T22:51:06.219Z,98800.00
2023-04-17T22:53:53.674Z,98801.00
2023-04-17T22:56:41.271Z,98794.00
2023-04-17T22:59:29.735Z,98794.00
2023-04-17T23:02:17.391Z,98799.00
2023-04-17T23:05:06.620Z,98799.00
2023-04-17T23:07:54.156Z,98804.00
2023-04-17T23:10:41.599Z,98798.00
2023-04-17T23:13:31.675Z,98797.00
2023-04-17T23:16:19.287Z,98798.00
2023-04-17T23:19:06.797Z,98807.00
2023-04-17T23:21:54.336Z,98807.00
2023-04-17T23:24:41.807Z,98803.00
2023-04-17T23:27:29.308Z,98797.00
2023-04-17T23:30:16.821Z,98803.00
2023-04-17T23:33:04.647Z,98814.00
2023-04-17T23:35:52.183Z,98808.00
2023-04-17T23:38:39.893Z,98802.00
2023-04-17T23:41:28.046Z,98800.00
2023-04-17T23:44:15.711Z,98784.00
2023-04-17T23:47:04.672Z,98787.00
2023-04-17T23:49:52.245Z,98797.00
2023-04-17T23:52:39.749Z,98788.00
2023-04-17T23:55:27.826Z,98785.00
2023-04-17T23:58:15.234Z,98782.00
